Skip Navigation LinksHome page > Weather > Current weather Skip Navigation Links

Current Weather

Bom Jesus Da Lapa, Brazil

For information only: do not use for flight planning or navigation.
Latest weather
Observation time Tuesday, October 6, 2015 8:00 AM BRT
Local time Tuesday, October 6, 2015 9:13 AM BRT
Flight conditions Visual Meteorological Conditions
Wind direction East (100°)
Wind speed 8 mph
Visibility 6.2 mi.
Sky condition
Ceiling unlimited
Sky clear
Temperature 84°F
Dewpoint 63°F
Altimeter 30.03 in.Hg
Derived measurements
Relative humidity 48%
Heat index 85°F
Density altitude 3192 ft.
Ceiling and visibility OK.
METAR SBLP 061100Z 10007KT CAVOK 29/17 Q1017


Location code

InnerDrive.Weather 4.0.5722.1 Release CLR 4.0.30319.34014
Copyright ©2015 Inner Drive Technology. All rights reserved. Portions Copyright ©1986-2015 David Braverman.

Find weather

Site navigation

Skip Navigation Links

Place info

Page info

PayPal - The safer, easier way to pay online!

Return home.

Copyright ©2015 Inner Drive Technology. Purveyors of fine, hand-crafted computer software. Page printed 2015-10-06T12:13:47 UTC.